Time;durP1;ratioP1;P1;durP2;ratioP2;P2;SDS_P1;SDS_P2;PMS_P1;PMS_P2;Temp;Humidity;BMP_temperature;BMP_pressure;BME280_temperature;BME280_humidity;BME280_pressure;Samples;Min_cycle;Max_cycle;Signal;HPM_P1;HPM_P2
2021/10/06 00:01:56;;;;;;;5.97;1.30;;;11.00;99.90;;;;;;5069412;28;20380;-55
2021/10/06 00:04:23;;;;;;;4.65;0.90;;;11.00;99.90;;;;;;5070552;28;20486;-55
2021/10/06 00:06:49;;;;;;;7.55;1.60;;;11.00;99.90;;;;;;5071773;28;20376;-55
2021/10/06 00:09:15;;;;;;;7.50;1.33;;;11.10;99.90;;;;;;5069746;28;20943;-55
2021/10/06 00:11:42;;;;;;;4.20;1.10;;;11.10;99.90;;;;;;5071153;28;20993;-55
2021/10/06 00:14:11;;;;;;;6.32;1.90;;;11.20;99.90;;;;;;5071571;28;20407;-55
2021/10/06 00:16:37;;;;;;;5.55;1.30;;;11.10;99.90;;;;;;5069841;28;20368;-55
2021/10/06 00:19:04;;;;;;;4.93;1.10;;;11.10;99.90;;;;;;5071367;28;20391;-55
2021/10/06 00:21:30;;;;;;;7.18;1.20;;;11.10;99.90;;;;;;5071008;28;20376;-55
2021/10/06 00:23:55;;;;;;;4.30;1.10;;;11.30;99.90;;;;;;5071383;28;20494;-55
2021/10/06 00:26:21;;;;;;;4.70;1.10;;;11.40;99.90;;;;;;5070238;28;20530;-55
2021/10/06 00:28:47;;;;;;;5.00;1.30;;;11.40;99.90;;;;;;5071617;28;20505;-55
2021/10/06 00:31:13;;;;;;;6.40;1.40;;;11.30;99.90;;;;;;5071221;28;20479;-55
2021/10/06 00:33:38;;;;;;;5.05;1.40;;;11.30;99.90;;;;;;5069333;28;20395;-55
2021/10/06 00:36:04;;;;;;;5.00;1.40;;;11.30;99.90;;;;;;5071344;28;20787;-55
2021/10/06 00:38:30;;;;;;;5.05;1.30;;;11.20;99.90;;;;;;5070283;28;20419;-55
2021/10/06 00:40:56;;;;;;;7.18;1.60;;;11.20;99.90;;;;;;5071155;28;20441;-55
2021/10/06 00:43:22;;;;;;;6.70;1.60;;;11.10;99.90;;;;;;5070166;28;20384;-55
2021/10/06 00:45:49;;;;;;;4.90;1.40;;;11.00;99.90;;;;;;5069854;28;20384;-55
2021/10/06 00:48:15;;;;;;;6.18;1.67;;;11.00;99.90;;;;;;5071215;28;20391;-55
2021/10/06 00:50:43;;;;;;;5.82;1.30;;;11.00;99.90;;;;;;5069864;28;20384;-55
2021/10/06 00:53:08;;;;;;;4.40;1.35;;;10.90;99.90;;;;;;5070027;28;20454;-55
2021/10/06 00:55:36;;;;;;;6.00;1.30;;;10.80;99.90;;;;;;5069173;28;21126;-55
2021/10/06 00:58:01;;;;;;;6.68;1.60;;;10.80;99.90;;;;;;5070578;28;20410;-55
2021/10/06 01:00:27;;;;;;;5.00;1.25;;;10.80;99.90;;;;;;5069848;28;20546;-55
2021/10/06 01:02:53;;;;;;;4.90;1.20;;;10.70;99.90;;;;;;5071095;28;20369;-55
2021/10/06 01:05:19;;;;;;;4.72;1.23;;;10.70;99.90;;;;;;5069962;28;20873;-55
2021/10/06 01:07:45;;;;;;;5.25;1.30;;;10.70;99.90;;;;;;5070889;28;20384;-55
2021/10/06 01:10:11;;;;;;;4.88;1.25;;;10.70;99.90;;;;;;5070930;28;20426;-55
2021/10/06 01:12:38;;;;;;;4.60;1.60;;;10.60;99.90;;;;;;5069948;28;20443;-55
2021/10/06 01:15:07;;;;;;;4.05;1.30;;;10.60;99.90;;;;;;5070416;28;20467;-55
2021/10/06 01:17:33;;;;;;;4.65;1.20;;;10.50;99.90;;;;;;5068587;28;20388;-55
2021/10/06 01:19:59;;;;;;;5.60;1.50;;;10.60;99.90;;;;;;5052442;28;20395;-55
2021/10/06 01:22:24;;;;;;;5.30;1.20;;;10.60;99.90;;;;;;5069377;28;20439;-55
2021/10/06 01:24:50;;;;;;;4.60;1.40;;;10.60;99.90;;;;;;5070129;28;20561;-55
2021/10/06 01:27:16;;;;;;;4.28;1.20;;;10.60;99.90;;;;;;5070240;28;20451;-55
2021/10/06 01:29:42;;;;;;;6.60;1.60;;;10.60;99.90;;;;;;5069260;28;20388;-55
2021/10/06 01:32:13;;;;;;;5.00;1.30;;;10.60;99.90;;;;;;5069644;28;20387;-55
2021/10/06 01:34:39;;;;;;;5.70;1.40;;;9.20;99.90;;;;;;5069012;28;20545;-55
2021/10/06 01:37:05;;;;;;;6.88;1.60;;;10.50;99.90;;;;;;5069849;28;20390;-56
2021/10/06 01:39:31;;;;;;;7.32;1.60;;;10.30;99.90;;;;;;5069325;28;20384;-56
2021/10/06 01:41:56;;;;;;;6.53;1.60;;;10.30;99.90;;;;;;5070043;28;20460;-56
2021/10/06 01:44:22;;;;;;;4.43;1.40;;;10.30;99.90;;;;;;5069255;28;20439;-56
2021/10/06 01:46:50;;;;;;;6.27;1.60;;;10.30;99.90;;;;;;5070013;28;20392;-55
2021/10/06 01:49:16;;;;;;;5.28;1.10;;;10.40;99.90;;;;;;5070016;28;20387;-56
2021/10/06 01:51:41;;;;;;;4.57;1.30;;;10.50;99.90;;;;;;5069154;28;20478;-56
2021/10/06 01:54:08;;;;;;;5.00;1.00;;;10.30;99.90;;;;;;5068665;28;20497;-56
2021/10/06 01:56:34;;;;;;;6.57;1.42;;;10.30;99.90;;;;;;5069088;28;20454;-56
2021/10/06 01:59:00;;;;;;;6.43;1.30;;;10.10;99.90;;;;;;5069987;28;20407;-55
2021/10/06 02:01:26;;;;;;;4.03;1.30;;;10.10;99.90;;;;;;5068896;28;20806;-56
2021/10/06 02:03:52;;;;;;;6.40;1.40;;;10.00;99.90;;;;;;5070067;28;20576;-56
2021/10/06 02:06:18;;;;;;;5.32;1.50;;;10.00;99.90;;;;;;5069358;28;20440;-56
2021/10/06 02:08:43;;;;;;;4.53;1.40;;;10.10;99.90;;;;;;5068780;28;20376;-55
2021/10/06 02:11:09;;;;;;;5.75;1.45;;;10.00;99.90;;;;;;5069513;28;20386;-56
2021/10/06 02:13:35;;;;;;;6.30;1.40;;;10.10;99.90;;;;;;5069251;28;20438;-56
2021/10/06 02:16:00;;;;;;;5.10;1.30;;;10.20;99.90;;;;;;5070201;28;20879;-56
2021/10/06 02:18:26;;;;;;;4.30;1.50;;;10.20;99.90;;;;;;5067689;28;20437;-56
2021/10/06 02:20:52;;;;;;;4.80;1.50;;;10.10;99.90;;;;;;5069607;28;20372;-56
2021/10/06 02:23:17;;;;;;;7.60;1.30;;;10.20;99.90;;;;;;5069714;28;20473;-56
2021/10/06 02:25:43;;;;;;;6.80;1.40;;;10.10;99.90;;;;;;5069103;28;20427;-56
2021/10/06 02:28:09;;;;;;;5.27;1.30;;;10.20;99.90;;;;;;5069769;28;20388;-56
2021/10/06 02:30:35;;;;;;;5.40;1.45;;;10.20;99.90;;;;;;5073413;28;20399;-56
2021/10/06 02:33:01;;;;;;;4.28;1.50;;;10.20;99.90;;;;;;5089553;28;20378;-56
2021/10/06 02:35:27;;;;;;;7.88;1.70;;;10.20;99.90;;;;;;5089038;28;20461;-56
2021/10/06 02:37:53;;;;;;;6.10;1.40;;;10.30;99.90;;;;;;5090010;28;20385;-56
2021/10/06 02:40:18;;;;;;;5.78;1.50;;;8.40;99.90;;;;;;5089271;28;20416;-56
2021/10/06 02:42:46;;;;;;;5.70;1.50;;;10.30;99.90;;;;;;5089023;28;20461;-56
2021/10/06 02:45:14;;;;;;;4.47;1.40;;;10.20;99.90;;;;;;5089343;28;21008;-56
2021/10/06 02:47:40;;;;;;;4.78;1.50;;;10.20;99.90;;;;;;5089030;28;20556;-56
2021/10/06 02:50:09;;;;;;;5.23;1.40;;;10.30;99.90;;;;;;5089639;28;20443;-56
2021/10/06 02:52:35;;;;;;;5.22;1.58;;;10.20;99.90;;;;;;5087595;28;20386;-56
2021/10/06 02:55:00;;;;;;;4.50;1.43;;;10.20;99.90;;;;;;5089138;28;20439;-56
2021/10/06 02:57:26;;;;;;;4.78;1.45;;;10.20;99.90;;;;;;5088807;28;20406;-56
2021/10/06 02:59:52;;;;;;;7.57;2.10;;;10.30;99.90;;;;;;5089552;28;20890;-56
2021/10/06 03:02:18;;;;;;;4.90;1.33;;;10.30;99.90;;;;;;5089495;28;20916;-56
2021/10/06 03:04:44;;;;;;;6.50;1.60;;;10.30;99.90;;;;;;5088871;28;20901;-56
2021/10/06 03:07:09;;;;;;;7.00;1.90;;;10.20;99.90;;;;;;5088333;28;20739;-55
2021/10/06 03:09:35;;;;;;;5.60;1.50;;;10.20;99.90;;;;;;5088637;28;20385;-56
2021/10/06 03:12:01;;;;;;;7.17;2.27;;;10.20;99.90;;;;;;5089152;28;20386;-56
2021/10/06 03:14:26;;;;;;;6.30;1.70;;;10.20;99.90;;;;;;5088970;28;20377;-56
2021/10/06 03:16:52;;;;;;;5.60;1.40;;;10.20;99.90;;;;;;5089180;28;20382;-56
2021/10/06 03:19:18;;;;;;;4.78;1.20;;;10.40;99.90;;;;;;5089411;28;20377;-56
2021/10/06 03:21:43;;;;;;;9.13;1.37;;;10.30;99.90;;;;;;5092423;28;20891;-56
2021/10/06 03:24:09;;;;;;;4.78;1.35;;;10.40;99.90;;;;;;5092662;28;20502;-56
2021/10/06 03:26:34;;;;;;;6.23;1.70;;;10.50;99.90;;;;;;5091361;28;20484;-56
2021/10/06 03:29:00;;;;;;;5.57;1.90;;;10.60;99.90;;;;;;5092968;28;20890;-56
2021/10/06 03:31:26;;;;;;;5.70;1.60;;;10.60;99.90;;;;;;5091458;28;20701;-56
2021/10/06 03:33:52;;;;;;;5.80;1.50;;;10.60;99.90;;;;;;5092721;28;20838;-56
2021/10/06 03:36:17;;;;;;;5.00;1.50;;;10.60;99.90;;;;;;5092714;28;20374;-56
2021/10/06 03:38:43;;;;;;;4.55;1.63;;;10.50;99.90;;;;;;5092057;28;20378;-56
2021/10/06 03:41:09;;;;;;;6.97;1.47;;;10.40;99.90;;;;;;5092753;28;20450;-56
2021/10/06 03:43:35;;;;;;;5.90;1.60;;;10.30;99.90;;;;;;5090935;28;20447;-56
2021/10/06 03:46:00;;;;;;;5.20;1.20;;;10.30;99.90;;;;;;5092645;28;20382;-56
2021/10/06 03:48:26;;;;;;;6.32;1.70;;;10.20;99.90;;;;;;5091803;28;20904;-56
2021/10/06 03:50:51;;;;;;;7.00;1.43;;;10.20;99.90;;;;;;5092522;28;20374;-56
2021/10/06 03:53:17;;;;;;;6.07;1.50;;;10.10;99.90;;;;;;5092614;28;20374;-56
2021/10/06 03:55:43;;;;;;;5.67;1.70;;;10.00;99.90;;;;;;5091189;28;20477;-56
2021/10/06 03:58:09;;;;;;;7.50;1.50;;;10.00;99.90;;;;;;5092540;28;20402;-56
2021/10/06 04:00:35;;;;;;;4.43;1.50;;;9.90;99.90;;;;;;5090846;28;20390;-56
2021/10/06 04:03:01;;;;;;;5.20;1.60;;;9.90;99.90;;;;;;5092170;28;20752;-56
2021/10/06 04:05:26;;;;;;;5.30;1.60;;;9.90;99.90;;;;;;5091484;28;20405;-56
2021/10/06 04:07:52;;;;;;;4.95;1.70;;;10.00;99.90;;;;;;5092216;28;20382;-56
2021/10/06 04:10:18;;;;;;;5.33;1.40;;;10.10;99.90;;;;;;5083267;28;20379;-55
2021/10/06 04:12:44;;;;;;;6.35;1.42;;;10.10;99.90;;;;;;5084831;28;20533;-55
2021/10/06 04:15:10;;;;;;;5.40;1.60;;;10.10;99.90;;;;;;5071863;28;20833;-56
2021/10/06 04:17:36;;;;;;;5.60;1.40;;;10.20;99.90;;;;;;5104301;28;20388;-56
2021/10/06 04:20:03;;;;;;;5.30;1.85;;;10.30;99.90;;;;;;5071702;28;20917;-55
2021/10/06 04:22:29;;;;;;;5.87;1.50;;;10.40;99.90;;;;;;5069277;28;20415;-55
2021/10/06 04:24:54;;;;;;;5.40;1.40;;;10.40;99.90;;;;;;5072516;28;20753;-55
2021/10/06 04:27:20;;;;;;;4.57;1.40;;;10.40;99.90;;;;;;5078003;28;20400;-55
2021/10/06 04:29:46;;;;;;;5.65;1.50;;;10.50;99.90;;;;;;5070813;28;20403;-55
2021/10/06 04:32:12;;;;;;;5.10;1.40;;;10.40;99.90;;;;;;5074599;28;20394;-55
2021/10/06 04:34:37;;;;;;;4.20;1.40;;;10.50;99.90;;;;;;5085391;28;20486;-55
2021/10/06 04:37:03;;;;;;;7.33;1.83;;;10.50;99.90;;;;;;5071326;28;20429;-55
2021/10/06 04:39:28;;;;;;;4.40;1.20;;;10.60;99.90;;;;;;5070085;28;20427;-56
2021/10/06 04:41:54;;;;;;;6.50;1.60;;;10.70;99.90;;;;;;5071026;28;20379;-55
2021/10/06 04:44:20;;;;;;;6.30;1.88;;;10.70;99.90;;;;;;5070740;28;20429;-55
2021/10/06 04:46:47;;;;;;;6.38;1.50;;;10.70;99.90;;;;;;5075675;28;20891;-55
2021/10/06 04:49:14;;;;;;;8.63;1.70;;;10.80;99.90;;;;;;5074729;28;20403;-55
2021/10/06 04:51:40;;;;;;;6.95;1.70;;;10.80;99.90;;;;;;5070262;28;20399;-55
2021/10/06 04:54:06;;;;;;;5.78;1.60;;;11.00;99.90;;;;;;5076513;28;20419;-56
2021/10/06 04:56:31;;;;;;;5.13;1.30;;;10.90;99.90;;;;;;5068261;28;20901;-55
2021/10/06 04:58:57;;;;;;;7.15;2.00;;;10.80;99.90;;;;;;5070130;28;20457;-55
2021/10/06 05:01:23;;;;;;;5.47;1.33;;;10.80;99.90;;;;;;5070999;28;20483;-55
2021/10/06 05:03:48;;;;;;;4.00;1.20;;;10.90;99.90;;;;;;5071203;28;20509;-55
2021/10/06 05:06:14;;;;;;;5.30;1.42;;;10.90;99.90;;;;;;5104214;27;20753;-55
2021/10/06 05:08:39;;;;;;;5.13;1.40;;;10.90;99.90;;;;;;5068888;28;20415;-55
2021/10/06 05:11:05;;;;;;;6.82;1.80;;;10.90;99.90;;;;;;5074934;28;20413;-55
2021/10/06 05:13:31;;;;;;;5.03;1.70;;;10.90;99.90;;;;;;5076215;28;20441;-55
2021/10/06 05:15:56;;;;;;;5.63;1.13;;;11.00;99.90;;;;;;5070235;28;20384;-55
2021/10/06 05:18:22;;;;;;;5.40;1.63;;;11.20;99.90;;;;;;5078479;28;20967;-55
2021/10/06 05:20:48;;;;;;;7.30;1.50;;;11.10;99.90;;;;;;5084201;28;20390;-56
2021/10/06 05:23:13;;;;;;;6.50;1.35;;;11.10;99.90;;;;;;5078957;28;20599;-55
2021/10/06 05:25:39;;;;;;;4.70;1.50;;;11.20;99.90;;;;;;5079855;28;20514;-56
2021/10/06 05:28:05;;;;;;;5.60;1.80;;;11.20;99.90;;;;;;5070552;28;20517;-55
2021/10/06 05:30:30;;;;;;;5.30;1.47;;;11.30;99.90;;;;;;5078599;28;20411;-55
2021/10/06 05:32:56;;;;;;;5.00;1.60;;;11.40;99.90;;;;;;5075813;28;20393;-55
2021/10/06 05:35:22;;;;;;;6.77;1.77;;;11.40;99.90;;;;;;5090139;28;20374;-55
2021/10/06 05:37:48;;;;;;;8.63;1.70;;;11.40;99.90;;;;;;5089784;28;20921;-55
2021/10/06 05:40:14;;;;;;;5.45;1.50;;;11.50;99.90;;;;;;5090176;28;20390;-56
2021/10/06 05:42:40;;;;;;;5.60;1.88;;;11.40;99.90;;;;;;5089375;28;20394;-55
2021/10/06 05:45:06;;;;;;;7.47;1.50;;;11.40;99.90;;;;;;5089718;28;20470;-56
2021/10/06 05:47:32;;;;;;;7.30;1.42;;;11.50;99.90;;;;;;5086291;28;20883;-54
2021/10/06 05:49:58;;;;;;;4.75;1.33;;;11.50;99.90;;;;;;5083698;28;20394;-56
2021/10/06 05:52:24;;;;;;;4.90;1.30;;;11.50;99.90;;;;;;5088282;28;20736;-54
2021/10/06 05:54:50;;;;;;;6.22;1.83;;;11.50;99.90;;;;;;5087083;28;20887;-54
2021/10/06 05:57:15;;;;;;;5.82;1.48;;;11.50;99.90;;;;;;5088405;28;20736;-53
2021/10/06 05:59:41;;;;;;;5.90;1.77;;;11.50;99.90;;;;;;5088269;28;20435;-54
2021/10/06 06:02:07;;;;;;;6.83;1.50;;;11.50;99.90;;;;;;5088669;28;20427;-53
2021/10/06 06:04:33;;;;;;;5.27;1.40;;;11.50;99.90;;;;;;5086261;28;20410;-54
2021/10/06 06:06:59;;;;;;;6.32;1.60;;;11.50;99.90;;;;;;5089333;28;20439;-54
2021/10/06 06:09:25;;;;;;;6.10;1.60;;;11.40;99.90;;;;;;5088465;28;20875;-54
2021/10/06 06:11:51;;;;;;;4.90;1.47;;;11.30;99.90;;;;;;5089098;28;20379;-54
2021/10/06 06:14:18;;;;;;;7.07;1.60;;;11.40;99.90;;;;;;5085186;28;20812;-54
2021/10/06 06:16:44;;;;;;;5.25;1.50;;;11.40;99.90;;;;;;5088354;28;20379;-55
2021/10/06 06:19:10;;;;;;;4.32;1.35;;;11.40;99.90;;;;;;5088775;28;20386;-54
2021/10/06 06:21:35;;;;;;;10.40;1.50;;;11.30;99.90;;;;;;5087917;28;20393;-54
2021/10/06 06:24:01;;;;;;;5.07;1.73;;;11.30;99.90;;;;;;5088961;28;20458;-54
2021/10/06 06:26:27;;;;;;;4.65;1.50;;;11.30;99.90;;;;;;5085636;28;20534;-54
2021/10/06 06:28:52;;;;;;;6.78;1.70;;;11.40;99.90;;;;;;5089155;28;20378;-54
2021/10/06 06:31:18;;;;;;;5.30;1.50;;;11.70;99.90;;;;;;5089010;28;20477;-54
2021/10/06 06:33:45;;;;;;;6.45;1.90;;;11.90;99.90;;;;;;5087578;28;20599;-54
2021/10/06 06:36:11;;;;;;;6.40;1.40;;;11.80;99.90;;;;;;5088836;28;20378;-54
2021/10/06 06:38:37;;;;;;;4.97;1.50;;;11.70;99.90;;;;;;5088105;28;20474;-55
2021/10/06 06:41:03;;;;;;;6.03;1.58;;;11.70;99.90;;;;;;5088974;28;20384;-55
2021/10/06 06:43:29;;;;;;;5.57;1.40;;;11.80;99.90;;;;;;5086327;28;20544;-55
2021/10/06 06:45:54;;;;;;;6.43;1.70;;;11.90;99.90;;;;;;5083640;28;20406;-55
2021/10/06 06:48:20;;;;;;;5.53;1.30;;;12.30;99.90;;;;;;5086024;28;20397;-55
2021/10/06 06:50:52;;;;;;;5.50;1.63;;;13.10;99.90;;;;;;5083199;28;20424;-55
2021/10/06 06:53:21;;;;;;;5.80;1.60;;;13.80;99.90;;;;;;5089096;28;20423;-55
2021/10/06 06:55:47;;;;;;;5.43;1.50;;;15.20;99.90;;;;;;5090424;28;21203;-55
2021/10/06 06:58:14;;;;;;;4.80;1.35;;;16.00;99.90;;;;;;5092863;28;20496;-55
2021/10/06 07:00:39;;;;;;;4.63;1.50;;;15.20;99.90;;;;;;5074832;28;20418;-55
2021/10/06 07:03:05;;;;;;;6.28;1.20;;;14.50;99.90;;;;;;5080489;28;20466;-55
2021/10/06 07:05:31;;;;;;;7.53;1.58;;;14.00;99.90;;;;;;5087333;28;20783;-55
2021/10/06 07:07:56;;;;;;;6.00;1.50;;;13.90;99.90;;;;;;5091949;28;20447;-55
2021/10/06 07:10:22;;;;;;;5.68;1.30;;;13.80;99.90;;;;;;5092438;28;20867;-55
2021/10/06 07:12:49;;;;;;;5.20;1.20;;;13.80;99.90;;;;;;5090857;28;20509;-55
2021/10/06 07:15:15;;;;;;;6.40;1.60;;;13.70;99.90;;;;;;5092095;28;20384;-55
2021/10/06 07:17:41;;;;;;;5.80;1.20;;;13.70;99.90;;;;;;5091889;28;20439;-55
2021/10/06 07:20:08;;;;;;;4.97;1.00;;;13.50;99.90;;;;;;5092499;28;20843;-55
2021/10/06 07:22:33;;;;;;;8.27;1.60;;;13.40;99.90;;;;;;5082574;28;20379;-55
2021/10/06 07:25:00;;;;;;;7.38;1.50;;;13.30;99.90;;;;;;5071560;28;20407;-54
2021/10/06 07:27:26;;;;;;;6.37;1.33;;;13.20;99.90;;;;;;5070852;28;20460;-54
2021/10/06 07:29:51;;;;;;;4.68;1.30;;;13.10;99.90;;;;;;5081742;28;20770;-55
2021/10/06 07:32:17;;;;;;;5.30;1.10;;;13.00;99.90;;;;;;5092254;28;20393;-54
2021/10/06 07:34:43;;;;;;;7.00;1.60;;;13.00;99.90;;;;;;5092125;28;20418;-55
2021/10/06 07:37:09;;;;;;;5.20;1.20;;;13.00;99.90;;;;;;5091614;28;20378;-54
2021/10/06 07:39:35;;;;;;;5.30;1.20;;;13.20;99.90;;;;;;5090500;28;20456;-55
2021/10/06 07:42:01;;;;;;;7.25;1.40;;;13.20;99.90;;;;;;5072121;28;20379;-54
2021/10/06 07:44:26;;;;;;;6.20;1.23;;;13.20;99.90;;;;;;5078194;28;20441;-54
2021/10/06 07:46:52;;;;;;;6.85;1.60;;;13.10;99.90;;;;;;5091861;28;20390;-54
2021/10/06 07:49:19;;;;;;;6.90;1.25;;;12.90;99.90;;;;;;5082217;28;20387;-53
2021/10/06 07:51:44;;;;;;;5.00;1.35;;;13.10;99.90;;;;;;5076341;28;20470;-53
2021/10/06 07:54:10;;;;;;;6.47;1.30;;;13.20;99.90;;;;;;5078099;28;20438;-55
2021/10/06 07:56:36;;;;;;;5.17;1.43;;;13.40;99.90;;;;;;5072290;28;20427;-55
2021/10/06 07:59:02;;;;;;;5.68;1.75;;;13.60;99.90;;;;;;5091180;28;20418;-55
2021/10/06 08:01:28;;;;;;;6.32;1.38;;;13.60;99.90;;;;;;5091089;28;20382;-55
2021/10/06 08:03:54;;;;;;;6.17;1.50;;;13.60;99.90;;;;;;5090691;28;20438;-55
2021/10/06 08:06:20;;;;;;;6.70;1.70;;;13.70;99.90;;;;;;5090021;28;20720;-55
2021/10/06 08:08:46;;;;;;;7.00;1.50;;;13.80;99.90;;;;;;5090892;28;20703;-55
2021/10/06 08:11:12;;;;;;;5.00;1.30;;;13.90;99.90;;;;;;5091037;28;20405;-55
2021/10/06 08:13:37;;;;;;;7.82;1.40;;;13.90;99.90;;;;;;5090198;28;20374;-55
2021/10/06 08:16:03;;;;;;;5.83;1.40;;;13.90;99.90;;;;;;5090937;28;20378;-55
2021/10/06 08:18:29;;;;;;;4.72;1.23;;;14.00;99.90;;;;;;5086962;28;20417;-55
2021/10/06 08:20:57;;;;;;;6.67;1.20;;;13.90;99.90;;;;;;5081194;28;20474;-55
2021/10/06 08:23:23;;;;;;;5.17;1.33;;;13.80;99.90;;;;;;5086320;28;20438;-55
2021/10/06 08:25:50;;;;;;;4.55;1.27;;;13.80;99.90;;;;;;5089924;28;20417;-55
2021/10/06 08:28:17;;;;;;;5.27;1.40;;;13.70;99.90;;;;;;5086902;28;20394;-55
2021/10/06 08:30:43;;;;;;;7.20;1.30;;;13.60;99.90;;;;;;5086839;28;20445;-55
2021/10/06 08:33:09;;;;;;;5.80;1.20;;;13.50;99.90;;;;;;5090760;28;20373;-55
2021/10/06 08:35:37;;;;;;;6.05;1.40;;;13.40;99.90;;;;;;5089761;28;20393;-55
2021/10/06 08:38:03;;;;;;;5.60;1.20;;;13.40;99.90;;;;;;5091102;28;20405;-55
2021/10/06 08:40:29;;;;;;;5.72;1.20;;;13.60;99.90;;;;;;5089911;28;20646;-55
2021/10/06 08:42:55;;;;;;;5.63;1.10;;;13.60;99.90;;;;;;5090948;28;20786;-55
2021/10/06 08:45:21;;;;;;;5.00;1.10;;;13.50;99.90;;;;;;5085923;28;20411;-55
2021/10/06 08:47:47;;;;;;;6.30;1.15;;;13.60;99.90;;;;;;5077634;28;20394;-55
2021/10/06 08:50:16;;;;;;;8.27;1.60;;;13.60;99.90;;;;;;5077706;28;20427;-55
2021/10/06 08:52:46;;;;;;;4.90;1.20;;;13.60;99.90;;;;;;5077892;28;20936;-55
2021/10/06 08:55:12;;;;;;;7.22;1.80;;;13.80;99.90;;;;;;5082404;28;20960;-55
2021/10/06 08:57:37;;;;;;;7.25;1.30;;;14.00;99.90;;;;;;5089013;28;20448;-55
2021/10/06 09:00:06;;;;;;;5.70;1.20;;;14.10;99.90;;;;;;5090234;28;20386;-55
2021/10/06 09:02:41;;;;;;;6.40;1.60;;;14.20;99.90;;;;;;5087415;28;20399;-55
2021/10/06 09:05:08;;;;;;;7.40;1.75;;;14.30;99.90;;;;;;5082959;28;20453;-55
2021/10/06 09:07:57;;;;;;;8.88;1.90;;;14.40;99.90;;;;;;5083367;28;20391;-55
2021/10/06 09:10:23;;;;;;;7.80;1.60;;;14.20;99.90;;;;;;5088437;28;20394;-55
2021/10/06 09:13:01;;;;;;;5.70;1.47;;;14.30;99.90;;;;;;5084124;28;20386;-55
2021/10/06 09:15:45;;;;;;;6.90;2.13;;;14.50;99.90;;;;;;5091294;28;20426;-55
2021/10/06 09:18:13;;;;;;;7.03;2.35;;;15.10;99.90;;;;;;5080533;28;20398;-55
2021/10/06 09:20:40;;;;;;;6.60;1.70;;;15.60;99.90;;;;;;5095340;28;20413;-56
2021/10/06 09:23:11;;;;;;;9.05;1.98;;;16.70;99.90;;;;;;5104607;28;20911;-55
2021/10/06 09:25:51;;;;;;;8.00;1.60;;;17.10;99.90;;;;;;5086964;28;21052;-55
2021/10/06 09:28:22;;;;;;;6.95;1.70;;;16.80;99.90;;;;;;5089448;28;20402;-55
2021/10/06 09:30:59;;;;;;;6.93;2.08;;;16.40;99.90;;;;;;5087791;28;20443;-55
2021/10/06 09:33:40;;;;;;;8.38;1.50;;;15.80;99.90;;;;;;5089658;28;20443;-55
2021/10/06 09:36:15;;;;;;;7.72;1.90;;;15.10;99.90;;;;;;5089857;28;20916;-55
2021/10/06 09:38:42;;;;;;;9.57;2.05;;;15.50;99.90;;;;;;5089157;28;20405;-56
2021/10/06 09:41:30;;;;;;;9.50;1.73;;;15.20;99.90;;;;;;5089349;28;20775;-55
2021/10/06 09:44:25;;;;;;;8.37;2.43;;;15.00;99.90;;;;;;5090042;28;20885;-56
2021/10/06 09:46:50;;;;;;;6.63;1.60;;;14.90;99.90;;;;;;5063431;28;20423;-56
2021/10/06 09:49:28;;;;;;;6.45;1.60;;;14.80;99.90;;;;;;5069661;28;20387;-56
2021/10/06 09:52:13;;;;;;;7.45;1.52;;;14.90;99.90;;;;;;5069311;28;20392;-56
2021/10/06 09:54:40;;;;;;;6.38;1.40;;;15.10;99.90;;;;;;5083161;28;20462;-56
2021/10/06 09:57:06;;;;;;;5.95;1.45;;;15.20;99.90;;;;;;5088803;28;20412;-56
2021/10/06 09:59:34;;;;;;;7.20;1.50;;;15.30;99.90;;;;;;5088407;28;20382;-55
2021/10/06 10:02:00;;;;;;;5.65;1.42;;;15.30;99.90;;;;;;5089791;28;20466;-56
2021/10/06 10:04:28;;;;;;;7.50;1.90;;;15.30;99.90;;;;;;5088932;28;20409;-55
2021/10/06 10:06:55;;;;;;;5.60;1.30;;;15.20;99.90;;;;;;5087565;28;20393;-55
2021/10/06 10:09:21;;;;;;;8.00;1.40;;;15.70;99.90;;;;;;5088960;28;20386;-54
2021/10/06 10:11:48;;;;;;;6.22;1.30;;;17.20;99.90;;;;;;5088563;28;20447;-54
2021/10/06 10:14:14;;;;;;;7.72;1.20;;;18.10;99.90;;;;;;5089249;28;20482;-54
2021/10/06 10:16:40;;;;;;;5.80;1.30;;;18.90;99.90;;;;;;5090951;28;20526;-54
2021/10/06 10:19:11;;;;;;;5.40;1.50;;;19.60;99.90;;;;;;5088651;28;20851;-55
2021/10/06 10:21:41;;;;;;;6.53;1.40;;;20.30;99.90;;;;;;5086100;28;20394;-55
2021/10/06 10:24:11;;;;;;;10.27;1.70;;;20.40;99.90;;;;;;5096465;28;21157;-54
2021/10/06 10:26:53;;;;;;;5.90;1.10;;;19.00;99.90;;;;;;5088466;28;20405;-54
2021/10/06 10:29:43;;;;;;;5.93;1.20;;;18.10;99.90;;;;;;5087261;28;20407;-54
2021/10/06 10:32:10;;;;;;;8.82;1.20;;;17.20;99.90;;;;;;5084300;28;20814;-55
2021/10/06 10:35:04;;;;;;;6.30;1.20;;;17.90;99.90;;;;;;5091735;28;20807;-55
2021/10/06 10:37:48;;;;;;;6.25;1.20;;;19.20;99.90;;;;;;5079737;28;20438;-55
2021/10/06 10:40:32;;;;;;;7.05;1.40;;;20.70;99.90;;;;;;5086723;28;20850;-55
2021/10/06 10:43:08;;;;;;;5.40;1.20;;;20.60;99.90;;;;;;5087762;28;20378;-55
2021/10/06 10:45:47;;;;;;;5.78;1.30;;;19.70;99.90;;;;;;5086401;28;20437;-55
2021/10/06 10:48:24;;;;;;;6.50;1.10;;;20.40;99.90;;;;;;5087263;28;20389;-56
2021/10/06 10:50:50;;;;;;;6.47;1.10;;;20.50;97.80;;;;;;5084906;28;20398;-55
2021/10/06 10:53:18;;;;;;;6.30;1.10;;;19.90;97.50;;;;;;5088080;28;20450;-56
2021/10/06 10:55:47;;;;;;;5.45;1.08;;;18.90;98.50;;;;;;5087772;28;20398;-56
2021/10/06 10:58:31;;;;;;;6.53;1.30;;;17.70;99.90;;;;;;5088517;28;20401;-56
2021/10/06 11:00:59;;;;;;;9.10;1.20;;;16.70;99.90;;;;;;5087598;28;20458;-56
2021/10/06 11:03:25;;;;;;;5.70;1.15;;;15.80;99.90;;;;;;5088994;28;20453;-56
2021/10/06 11:05:56;;;;;;;5.10;1.00;;;15.50;99.90;;;;;;5087716;28;20542;-55
2021/10/06 11:08:28;;;;;;;4.88;1.30;;;15.20;99.90;;;;;;5088492;28;20842;-56
2021/10/06 11:11:09;;;;;;;5.00;1.20;;;15.30;99.90;;;;;;5086879;28;20410;-55
2021/10/06 11:13:38;;;;;;;5.15;1.40;;;15.20;99.90;;;;;;5086017;28;20401;-56
2021/10/06 11:16:05;;;;;;;7.20;1.20;;;15.10;99.90;;;;;;5088543;28;20390;-57
2021/10/06 11:18:45;;;;;;;7.30;1.30;;;15.10;99.90;;;;;;5087562;28;20389;-56
2021/10/06 11:21:11;;;;;;;6.93;1.63;;;15.20;99.90;;;;;;5086378;28;20397;-57
2021/10/06 11:23:42;;;;;;;7.07;1.30;;;15.30;99.90;;;;;;5088436;28;20393;-56
2021/10/06 11:26:21;;;;;;;4.90;1.03;;;15.70;99.90;;;;;;5087704;28;20433;-56
2021/10/06 11:28:52;;;;;;;6.10;1.17;;;16.30;99.90;;;;;;5085710;28;20398;-56
2021/10/06 11:31:26;;;;;;;4.70;1.23;;;16.80;99.90;;;;;;5088509;28;20390;-56
2021/10/06 11:33:52;;;;;;;6.43;1.20;;;16.90;99.90;;;;;;5087080;28;20378;-56
2021/10/06 11:36:21;;;;;;;7.23;1.30;;;17.00;99.90;;;;;;5088141;28;20739;-56
2021/10/06 11:38:50;;;;;;;5.53;1.25;;;17.10;99.90;;;;;;5087457;28;20726;-54
2021/10/06 11:41:17;;;;;;;8.57;1.48;;;17.40;99.90;;;;;;5090048;28;20378;-55
2021/10/06 11:43:54;;;;;;;5.82;1.00;;;17.60;99.90;;;;;;5090816;28;20403;-55
2021/10/06 11:46:21;;;;;;;5.40;1.40;;;17.40;99.90;;;;;;5089297;28;20386;-55
2021/10/06 11:48:49;;;;;;;6.78;1.00;;;17.00;99.90;;;;;;5090399;28;20390;-55
2021/10/06 11:51:15;;;;;;;7.40;1.10;;;17.10;99.90;;;;;;5091994;28;20390;-55
2021/10/06 11:53:49;;;;;;;6.40;1.10;;;17.20;99.90;;;;;;5091367;28;20985;-55
2021/10/06 11:56:26;;;;;;;5.15;1.13;;;17.00;99.90;;;;;;5091865;28;20920;-56
2021/10/06 11:58:52;;;;;;;6.35;1.20;;;16.90;99.90;;;;;;5086674;28;20837;-56
2021/10/06 12:01:18;;;;;;;6.78;1.33;;;16.90;99.90;;;;;;5091973;28;20399;-56
2021/10/06 12:03:43;;;;;;;5.30;1.00;;;18.60;99.90;;;;;;5091125;28;20383;-56
2021/10/06 12:06:18;;;;;;;5.87;1.30;;;17.30;99.90;;;;;;5091790;28;20410;-56
2021/10/06 12:08:44;;;;;;;6.57;1.30;;;17.40;99.90;;;;;;5095088;28;20381;-56
2021/10/06 12:11:09;;;;;;;4.88;1.30;;;17.40;99.90;;;;;;5112157;28;20999;-56
2021/10/06 12:13:38;;;;;;;5.80;1.20;;;17.40;99.90;;;;;;5109532;28;20752;-56
2021/10/06 12:16:23;;;;;;;7.18;1.10;;;17.60;99.90;;;;;;5112101;28;20439;-56
2021/10/06 12:19:03;;;;;;;4.67;1.20;;;17.60;99.90;;;;;;5109789;28;20475;-57
2021/10/06 12:21:30;;;;;;;5.40;1.40;;;17.50;99.90;;;;;;5111690;28;20372;-56
2021/10/06 12:24:15;;;;;;;4.95;1.20;;;17.50;99.90;;;;;;5111474;28;20761;-56
2021/10/06 12:26:41;;;;;;;5.60;1.08;;;17.20;99.90;;;;;;5100870;28;20830;-56
2021/10/06 12:29:06;;;;;;;5.73;1.10;;;17.10;99.90;;;;;;5091283;28;20528;-56
2021/10/06 12:31:34;;;;;;;5.63;1.08;;;17.50;99.90;;;;;;5090475;28;20469;-56
2021/10/06 12:34:12;;;;;;;4.20;0.90;;;17.80;99.90;;;;;;5091412;28;20373;-56
2021/10/06 12:36:46;;;;;;;5.60;1.00;;;17.70;99.90;;;;;;5090345;28;20462;-56
2021/10/06 12:39:18;;;;;;;5.70;1.02;;;17.90;99.90;;;;;;5100405;28;20381;-56
2021/10/06 12:41:51;;;;;;;5.10;1.20;;;18.00;99.90;;;;;;5104278;28;20435;-53
2021/10/06 12:44:21;;;;;;;5.03;0.90;;;18.30;99.90;;;;;;5092624;28;20410;-53
2021/10/06 12:46:46;;;;;;;6.32;1.20;;;18.20;99.90;;;;;;5098163;28;20460;-56
2021/10/06 12:49:13;;;;;;;5.07;1.00;;;17.80;99.90;;;;;;5111318;28;20782;-56
2021/10/06 12:51:40;;;;;;;5.38;1.00;;;17.60;99.90;;;;;;5110832;28;20377;-56